sensor_id;sensor_type;location;lat;lon;timestamp;pressure;altitude;pressure_sealevel;temperature;humidity
10014;BME280;45684;48.358;10.746;2023-07-31T00:02:05;96323.56;;;15.99;100.00
10014;BME280;45684;48.358;10.746;2023-07-31T00:04:33;96313.78;;;15.98;100.00
10014;BME280;45684;48.358;10.746;2023-07-31T00:07:00;96310.63;;;15.96;100.00
10014;BME280;45684;48.358;10.746;2023-07-31T00:09:32;96318.72;;;15.92;100.00
10014;BME280;45684;48.358;10.746;2023-07-31T00:12:00;96312.47;;;15.92;100.00
10014;BME280;45684;48.358;10.746;2023-07-31T00:14:27;96309.75;;;15.92;100.00
10014;BME280;45684;48.358;10.746;2023-07-31T00:16:55;96308.41;;;15.86;100.00
10014;BME280;45684;48.358;10.746;2023-07-31T00:19:23;96319.22;;;15.82;100.00
10014;BME280;45684;48.358;10.746;2023-07-31T00:21:51;96323.06;;;15.81;100.00
10014;BME280;45684;48.358;10.746;2023-07-31T00:24:19;96315.94;;;15.76;100.00
10014;BME280;45684;48.358;10.746;2023-07-31T00:26:48;96315.47;;;15.74;100.00
10014;BME280;45684;48.358;10.746;2023-07-31T00:29:15;96316.41;;;15.66;100.00
10014;BME280;45684;48.358;10.746;2023-07-31T00:31:43;96319.47;;;15.65;100.00
10014;BME280;45684;48.358;10.746;2023-07-31T00:34:11;96313.34;;;15.68;100.00
10014;BME280;45684;48.358;10.746;2023-07-31T00:36:39;96315.03;;;15.72;100.00
10014;BME280;45684;48.358;10.746;2023-07-31T00:39:07;96319.34;;;15.73;100.00
10014;BME280;45684;48.358;10.746;2023-07-31T00:41:35;96312.63;;;15.71;100.00
10014;BME280;45684;48.358;10.746;2023-07-31T00:44:04;96309.47;;;15.69;100.00
10014;BME280;45684;48.358;10.746;2023-07-31T00:46:33;96304.69;;;15.66;100.00
10014;BME280;45684;48.358;10.746;2023-07-31T00:49:02;96310.72;;;15.59;100.00
10014;BME280;45684;48.358;10.746;2023-07-31T00:51:30;96306.38;;;15.70;100.00
10014;BME280;45684;48.358;10.746;2023-07-31T00:53:58;96308.22;;;15.66;100.00
10014;BME280;45684;48.358;10.746;2023-07-31T00:56:26;96308.56;;;15.65;100.00
10014;BME280;45684;48.358;10.746;2023-07-31T00:58:55;96308.66;;;15.56;100.00
10014;BME280;45684;48.358;10.746;2023-07-31T01:01:24;96298.22;;;15.58;100.00
10014;BME280;45684;48.358;10.746;2023-07-31T01:03:52;96305.25;;;15.59;100.00
10014;BME280;45684;48.358;10.746;2023-07-31T01:06:29;96298.56;;;15.56;100.00
10014;BME280;45684;48.358;10.746;2023-07-31T01:09:02;96299.16;;;15.50;100.00
10014;BME280;45684;48.358;10.746;2023-07-31T01:11:32;96298.38;;;15.49;100.00
10014;BME280;45684;48.358;10.746;2023-07-31T01:14:01;96297.34;;;15.54;100.00
10014;BME280;45684;48.358;10.746;2023-07-31T01:16:31;96293.09;;;15.56;100.00
10014;BME280;45684;48.358;10.746;2023-07-31T01:18:58;96295.94;;;15.60;100.00
10014;BME280;45684;48.358;10.746;2023-07-31T01:21:41;96286.28;;;15.63;100.00
10014;BME280;45684;48.358;10.746;2023-07-31T01:24:21;96286.28;;;15.63;100.00
10014;BME280;45684;48.358;10.746;2023-07-31T01:26:56;96280.56;;;15.40;100.00
10014;BME280;45684;48.358;10.746;2023-07-31T01:29:33;96276.56;;;15.49;100.00
10014;BME280;45684;48.358;10.746;2023-07-31T01:32:04;96280.19;;;15.53;100.00
10014;BME280;45684;48.358;10.746;2023-07-31T01:34:34;96280.50;;;15.52;100.00
10014;BME280;45684;48.358;10.746;2023-07-31T01:37:03;96278.94;;;15.51;100.00
10014;BME280;45684;48.358;10.746;2023-07-31T01:39:31;96281.66;;;15.51;100.00
10014;BME280;45684;48.358;10.746;2023-07-31T01:42:00;96278.50;;;15.49;100.00
10014;BME280;45684;48.358;10.746;2023-07-31T01:44:28;96284.19;;;15.44;100.00
10014;BME280;45684;48.358;10.746;2023-07-31T01:46:56;96276.00;;;15.44;100.00
10014;BME280;45684;48.358;10.746;2023-07-31T01:49:26;96269.59;;;15.52;100.00
10014;BME280;45684;48.358;10.746;2023-07-31T01:51:55;96275.53;;;15.54;100.00
10014;BME280;45684;48.358;10.746;2023-07-31T01:54:22;96274.81;;;15.57;100.00
10014;BME280;45684;48.358;10.746;2023-07-31T01:56:50;96266.88;;;15.52;100.00
10014;BME280;45684;48.358;10.746;2023-07-31T01:59:19;96271.78;;;15.46;100.00
10014;BME280;45684;48.358;10.746;2023-07-31T02:01:47;96275.53;;;15.54;100.00
10014;BME280;45684;48.358;10.746;2023-07-31T02:04:17;96262.28;;;15.28;100.00
10014;BME280;45684;48.358;10.746;2023-07-31T02:06:45;96256.84;;;15.28;100.00
10014;BME280;45684;48.358;10.746;2023-07-31T02:09:13;96256.22;;;15.47;100.00
10014;BME280;45684;48.358;10.746;2023-07-31T02:11:41;96255.19;;;15.51;100.00
10014;BME280;45684;48.358;10.746;2023-07-31T02:14:09;96247.72;;;15.48;100.00
10014;BME280;45684;48.358;10.746;2023-07-31T02:16:38;96252.59;;;15.43;100.00
10014;BME280;45684;48.358;10.746;2023-07-31T02:19:06;96248.28;;;15.42;100.00
10014;BME280;45684;48.358;10.746;2023-07-31T02:21:34;96250.66;;;15.43;100.00
10014;BME280;45684;48.358;10.746;2023-07-31T02:24:02;96237.03;;;15.43;100.00
10014;BME280;45684;48.358;10.746;2023-07-31T02:26:30;96234.38;;;15.31;100.00
10014;BME280;45684;48.358;10.746;2023-07-31T02:28:58;96233.13;;;15.28;100.00
10014;BME280;45684;48.358;10.746;2023-07-31T02:31:25;96234.25;;;15.27;100.00
10014;BME280;45684;48.358;10.746;2023-07-31T02:33:55;96232.22;;;15.24;100.00
10014;BME280;45684;48.358;10.746;2023-07-31T02:36:23;96225.66;;;15.25;100.00
10014;BME280;45684;48.358;10.746;2023-07-31T02:38:50;96231.53;;;15.27;100.00
10014;BME280;45684;48.358;10.746;2023-07-31T02:41:18;96222.94;;;15.25;100.00
10014;BME280;45684;48.358;10.746;2023-07-31T02:43:46;96223.06;;;15.17;100.00
10014;BME280;45684;48.358;10.746;2023-07-31T02:46:14;96214.34;;;15.11;100.00
10014;BME280;45684;48.358;10.746;2023-07-31T02:48:42;96219.31;;;15.09;100.00
10014;BME280;45684;48.358;10.746;2023-07-31T02:51:11;96228.63;;;15.08;100.00
10014;BME280;45684;48.358;10.746;2023-07-31T02:53:39;96223.53;;;15.07;100.00
10014;BME280;45684;48.358;10.746;2023-07-31T02:56:07;96223.41;;;15.03;100.00
10014;BME280;45684;48.358;10.746;2023-07-31T02:58:35;96221.50;;;15.03;100.00
10014;BME280;45684;48.358;10.746;2023-07-31T03:01:03;96219.56;;;15.04;100.00
10014;BME280;45684;48.358;10.746;2023-07-31T03:03:31;96214.00;;;15.00;100.00
10014;BME280;45684;48.358;10.746;2023-07-31T03:05:59;96215.50;;;14.98;100.00
10014;BME280;45684;48.358;10.746;2023-07-31T03:08:28;96217.84;;;14.99;100.00
10014;BME280;45684;48.358;10.746;2023-07-31T03:10:56;96223.97;;;14.96;100.00
10014;BME280;45684;48.358;10.746;2023-07-31T03:13:24;96224.88;;;15.00;100.00
10014;BME280;45684;48.358;10.746;2023-07-31T03:15:52;96222.94;;;15.01;100.00
10014;BME280;45684;48.358;10.746;2023-07-31T03:18:20;96216.47;;;15.05;100.00
10014;BME280;45684;48.358;10.746;2023-07-31T03:20:48;96220.22;;;15.13;100.00
10014;BME280;45684;48.358;10.746;2023-07-31T03:23:15;96216.03;;;15.16;100.00
10014;BME280;45684;48.358;10.746;2023-07-31T03:25:56;96221.66;;;15.23;100.00
10014;BME280;45684;48.358;10.746;2023-07-31T03:28:27;96212.47;;;15.27;100.00
10014;BME280;45684;48.358;10.746;2023-07-31T03:30:55;96211.78;;;15.30;100.00
10014;BME280;45684;48.358;10.746;2023-07-31T03:33:23;96208.47;;;15.37;100.00
10014;BME280;45684;48.358;10.746;2023-07-31T03:35:52;96213.66;;;15.42;100.00
10014;BME280;45684;48.358;10.746;2023-07-31T03:38:20;96224.22;;;15.44;100.00
10014;BME280;45684;48.358;10.746;2023-07-31T03:40:48;96213.75;;;15.46;100.00
10014;BME280;45684;48.358;10.746;2023-07-31T03:43:17;96216.06;;;15.44;100.00
10014;BME280;45684;48.358;10.746;2023-07-31T03:45:46;96216.63;;;15.37;100.00
10014;BME280;45684;48.358;10.746;2023-07-31T03:48:14;96218.38;;;15.29;100.00
10014;BME280;45684;48.358;10.746;2023-07-31T03:50:42;96212.94;;;15.29;100.00
10014;BME280;45684;48.358;10.746;2023-07-31T03:53:10;96220.16;;;15.38;100.00
10014;BME280;45684;48.358;10.746;2023-07-31T03:55:38;96214.25;;;15.36;100.00
10014;BME280;45684;48.358;10.746;2023-07-31T03:58:06;96224.53;;;15.54;100.00
10014;BME280;45684;48.358;10.746;2023-07-31T04:00:35;96214.72;;;15.66;100.00
10014;BME280;45684;48.358;10.746;2023-07-31T04:03:03;96224.16;;;15.68;100.00
10014;BME280;45684;48.358;10.746;2023-07-31T04:05:31;96218.19;;;15.78;100.00
10014;BME280;45684;48.358;10.746;2023-07-31T04:07:59;96207.09;;;15.71;100.00
10014;BME280;45684;48.358;10.746;2023-07-31T04:10:27;96207.50;;;15.86;100.00
10014;BME280;45684;48.358;10.746;2023-07-31T04:12:55;96202.72;;;15.82;100.00
10014;BME280;45684;48.358;10.746;2023-07-31T04:15:23;96198.84;;;15.68;100.00
10014;BME280;45684;48.358;10.746;2023-07-31T04:17:52;96199.88;;;15.51;100.00
10014;BME280;45684;48.358;10.746;2023-07-31T04:20:20;96205.03;;;15.40;100.00
10014;BME280;45684;48.358;10.746;2023-07-31T04:22:48;96199.94;;;15.39;100.00
10014;BME280;45684;48.358;10.746;2023-07-31T04:25:16;96193.72;;;15.66;100.00
10014;BME280;45684;48.358;10.746;2023-07-31T04:27:43;96197.69;;;15.56;100.00
10014;BME280;45684;48.358;10.746;2023-07-31T04:30:11;96186.13;;;15.60;100.00
10014;BME280;45684;48.358;10.746;2023-07-31T04:32:39;96192.59;;;15.67;100.00
10014;BME280;45684;48.358;10.746;2023-07-31T04:35:08;96178.00;;;15.75;100.00
10014;BME280;45684;48.358;10.746;2023-07-31T04:37:36;96183.75;;;15.86;100.00
10014;BME280;45684;48.358;10.746;2023-07-31T04:40:06;96188.69;;;15.96;100.00
10014;BME280;45684;48.358;10.746;2023-07-31T04:42:34;96190.09;;;16.06;100.00
10014;BME280;45684;48.358;10.746;2023-07-31T04:45:03;96188.00;;;16.15;100.00
10014;BME280;45684;48.358;10.746;2023-07-31T04:47:31;96184.56;;;16.18;100.00
10014;BME280;45684;48.358;10.746;2023-07-31T04:49:59;96196.09;;;16.27;100.00
10014;BME280;45684;48.358;10.746;2023-07-31T04:52:28;96190.44;;;16.36;100.00
10014;BME280;45684;48.358;10.746;2023-07-31T04:54:56;96191.41;;;16.44;100.00
10014;BME280;45684;48.358;10.746;2023-07-31T04:57:24;96190.88;;;16.54;100.00
10014;BME280;45684;48.358;10.746;2023-07-31T04:59:52;96187.97;;;16.63;100.00
10014;BME280;45684;48.358;10.746;2023-07-31T05:02:19;96189.63;;;16.67;100.00
10014;BME280;45684;48.358;10.746;2023-07-31T05:04:47;96194.56;;;16.77;100.00
10014;BME280;45684;48.358;10.746;2023-07-31T05:07:15;96190.88;;;16.86;100.00
10014;BME280;45684;48.358;10.746;2023-07-31T05:09:45;96198.41;;;16.92;100.00
10014;BME280;45684;48.358;10.746;2023-07-31T05:12:13;96193.03;;;16.96;100.00
10014;BME280;45684;48.358;10.746;2023-07-31T05:14:41;96197.78;;;16.99;100.00
10014;BME280;45684;48.358;10.746;2023-07-31T05:17:08;96200.66;;;17.06;100.00
10014;BME280;45684;48.358;10.746;2023-07-31T05:19:36;96196.06;;;17.10;100.00
10014;BME280;45684;48.358;10.746;2023-07-31T05:22:04;96207.16;;;17.17;100.00
10014;BME280;45684;48.358;10.746;2023-07-31T05:24:32;96205.03;;;17.26;100.00
10014;BME280;45684;48.358;10.746;2023-07-31T05:27:02;96207.09;;;17.33;100.00
10014;BME280;45684;48.358;10.746;2023-07-31T05:29:30;96213.31;;;17.49;100.00
10014;BME280;45684;48.358;10.746;2023-07-31T05:31:58;96210.56;;;17.69;100.00
10014;BME280;45684;48.358;10.746;2023-07-31T05:34:26;96210.38;;;17.77;100.00
10014;BME280;45684;48.358;10.746;2023-07-31T05:36:54;96217.56;;;17.85;100.00
10014;BME280;45684;48.358;10.746;2023-07-31T05:39:21;96212.53;;;17.88;100.00
10014;BME280;45684;48.358;10.746;2023-07-31T05:41:49;96214.19;;;17.92;100.00
10014;BME280;45684;48.358;10.746;2023-07-31T05:44:18;96208.81;;;17.99;100.00
10014;BME280;45684;48.358;10.746;2023-07-31T05:46:46;96208.53;;;18.04;100.00
10014;BME280;45684;48.358;10.746;2023-07-31T05:49:14;96207.72;;;18.04;100.00
10014;BME280;45684;48.358;10.746;2023-07-31T05:51:42;96203.88;;;17.85;100.00
10014;BME280;45684;48.358;10.746;2023-07-31T05:54:10;96199.25;;;17.90;100.00
10014;BME280;45684;48.358;10.746;2023-07-31T05:56:38;96204.88;;;17.97;100.00
10014;BME280;45684;48.358;10.746;2023-07-31T05:59:06;96201.69;;;17.95;100.00
10014;BME280;45684;48.358;10.746;2023-07-31T06:01:35;96206.72;;;18.12;100.00
10014;BME280;45684;48.358;10.746;2023-07-31T06:04:03;96205.00;;;18.04;100.00
10014;BME280;45684;48.358;10.746;2023-07-31T06:06:31;96193.66;;;18.25;100.00
10014;BME280;45684;48.358;10.746;2023-07-31T06:08:59;96190.22;;;18.31;100.00
10014;BME280;45684;48.358;10.746;2023-07-31T06:11:27;96187.44;;;18.28;100.00
10014;BME280;45684;48.358;10.746;2023-07-31T06:13:55;96186.09;;;18.18;100.00
10014;BME280;45684;48.358;10.746;2023-07-31T06:16:22;96177.94;;;18.22;100.00
10014;BME280;45684;48.358;10.746;2023-07-31T06:18:52;96169.84;;;18.29;100.00
10014;BME280;45684;48.358;10.746;2023-07-31T06:21:20;96176.66;;;18.39;100.00
10014;BME280;45684;48.358;10.746;2023-07-31T06:23:47;96185.19;;;18.83;100.00
10014;BME280;45684;48.358;10.746;2023-07-31T06:26:15;96189.38;;;19.00;100.00
10014;BME280;45684;48.358;10.746;2023-07-31T06:28:43;96179.00;;;19.16;100.00
10014;BME280;45684;48.358;10.746;2023-07-31T06:31:11;96187.84;;;19.32;100.00
10014;BME280;45684;48.358;10.746;2023-07-31T06:33:39;96186.81;;;19.44;100.00
10014;BME280;45684;48.358;10.746;2023-07-31T06:36:08;96192.66;;;19.43;100.00
10014;BME280;45684;48.358;10.746;2023-07-31T06:38:36;96183.38;;;19.51;100.00
10014;BME280;45684;48.358;10.746;2023-07-31T06:41:04;96189.25;;;19.49;100.00
10014;BME280;45684;48.358;10.746;2023-07-31T06:43:32;96183.16;;;19.33;100.00
10014;BME280;45684;48.358;10.746;2023-07-31T06:46:04;96193.47;;;19.43;100.00
10014;BME280;45684;48.358;10.746;2023-07-31T06:48:32;96184.03;;;19.41;100.00
10014;BME280;45684;48.358;10.746;2023-07-31T06:51:00;96190.44;;;19.52;100.00
10014;BME280;45684;48.358;10.746;2023-07-31T06:53:30;96187.16;;;19.69;100.00
10014;BME280;45684;48.358;10.746;2023-07-31T06:55:57;96187.31;;;19.83;100.00
10014;BME280;45684;48.358;10.746;2023-07-31T06:58:25;96185.50;;;19.98;100.00
10014;BME280;45684;48.358;10.746;2023-07-31T07:00:53;96192.63;;;20.06;100.00
10014;BME280;45684;48.358;10.746;2023-07-31T07:03:21;96195.81;;;20.12;100.00
10014;BME280;45684;48.358;10.746;2023-07-31T07:05:49;96198.72;;;20.26;100.00
10014;BME280;45684;48.358;10.746;2023-07-31T07:08:17;96183.06;;;20.30;100.00
10014;BME280;45684;48.358;10.746;2023-07-31T07:10:46;96185.50;;;20.39;100.00
10014;BME280;45684;48.358;10.746;2023-07-31T07:13:14;96179.41;;;20.60;100.00
10014;BME280;45684;48.358;10.746;2023-07-31T07:15:42;96178.75;;;20.77;100.00
10014;BME280;45684;48.358;10.746;2023-07-31T07:18:10;96176.16;;;21.02;98.63
10014;BME280;45684;48.358;10.746;2023-07-31T07:20:38;96178.13;;;21.05;96.14
10014;BME280;45684;48.358;10.746;2023-07-31T07:23:06;96175.88;;;21.22;97.16
10014;BME280;45684;48.358;10.746;2023-07-31T07:25:37;96185.03;;;21.36;96.21
10014;BME280;45684;48.358;10.746;2023-07-31T07:28:06;96189.81;;;21.50;93.04
10014;BME280;45684;48.358;10.746;2023-07-31T07:30:34;96178.81;;;21.57;92.83
10014;BME280;45684;48.358;10.746;2023-07-31T07:33:03;96180.41;;;21.65;93.06
10014;BME280;45684;48.358;10.746;2023-07-31T07:35:33;96191.75;;;21.53;94.00
10014;BME280;45684;48.358;10.746;2023-07-31T07:38:01;96178.72;;;21.39;95.01
10014;BME280;45684;48.358;10.746;2023-07-31T07:40:29;96173.66;;;21.49;94.02
10014;BME280;45684;48.358;10.746;2023-07-31T07:42:57;96174.44;;;21.49;94.22
10014;BME280;45684;48.358;10.746;2023-07-31T07:45:28;96177.56;;;21.44;91.80
10014;BME280;45684;48.358;10.746;2023-07-31T07:47:55;96176.03;;;21.54;91.35
10014;BME280;45684;48.358;10.746;2023-07-31T07:50:24;96175.28;;;21.57;90.68
10014;BME280;45684;48.358;10.746;2023-07-31T07:52:52;96181.59;;;21.68;91.47
10014;BME280;45684;48.358;10.746;2023-07-31T07:55:20;96176.13;;;21.75;91.75
10014;BME280;45684;48.358;10.746;2023-07-31T07:57:48;96176.91;;;21.69;92.17
10014;BME280;45684;48.358;10.746;2023-07-31T08:00:17;96180.81;;;21.64;92.83
10014;BME280;45684;48.358;10.746;2023-07-31T08:02:46;96179.56;;;21.47;94.61
10014;BME280;45684;48.358;10.746;2023-07-31T08:05:14;96176.03;;;21.47;94.31
10014;BME280;45684;48.358;10.746;2023-07-31T08:07:44;96180.75;;;21.46;93.36
10014;BME280;45684;48.358;10.746;2023-07-31T08:10:12;96187.84;;;21.58;93.18
10014;BME280;45684;48.358;10.746;2023-07-31T08:12:39;96186.31;;;21.64;92.85
10014;BME280;45684;48.358;10.746;2023-07-31T08:15:08;96188.31;;;21.74;92.52
10014;BME280;45684;48.358;10.746;2023-07-31T08:17:36;96190.66;;;21.65;88.68
10014;BME280;45684;48.358;10.746;2023-07-31T08:20:06;96191.81;;;21.64;87.91
10014;BME280;45684;48.358;10.746;2023-07-31T08:22:34;96199.97;;;21.43;85.03
10014;BME280;45684;48.358;10.746;2023-07-31T08:25:03;96193.75;;;21.56;85.84
10014;BME280;45684;48.358;10.746;2023-07-31T08:27:31;96186.72;;;21.70;86.00
10014;BME280;45684;48.358;10.746;2023-07-31T08:29:59;96186.34;;;21.75;82.24
10014;BME280;45684;48.358;10.746;2023-07-31T08:32:27;96184.81;;;21.91;75.93
10014;BME280;45684;48.358;10.746;2023-07-31T08:34:55;96186.50;;;22.21;74.81
10014;BME280;45684;48.358;10.746;2023-07-31T08:37:24;96192.41;;;22.37;74.18
10014;BME280;45684;48.358;10.746;2023-07-31T08:39:52;96181.78;;;22.47;71.25
10014;BME280;45684;48.358;10.746;2023-07-31T08:42:21;96192.03;;;22.50;68.45
10014;BME280;45684;48.358;10.746;2023-07-31T08:44:49;96182.59;;;22.44;67.62
10014;BME280;45684;48.358;10.746;2023-07-31T08:47:19;96171.53;;;22.36;67.80
10014;BME280;45684;48.358;10.746;2023-07-31T08:49:47;96178.59;;;22.23;66.51
10014;BME280;45684;48.358;10.746;2023-07-31T08:52:15;96171.91;;;22.24;69.05
10014;BME280;45684;48.358;10.746;2023-07-31T08:54:44;96158.13;;;22.24;70.50
10014;BME280;45684;48.358;10.746;2023-07-31T08:57:12;96157.34;;;22.13;70.52
10014;BME280;45684;48.358;10.746;2023-07-31T08:59:41;96161.28;;;22.33;71.84
10014;BME280;45684;48.358;10.746;2023-07-31T09:02:10;96173.91;;;22.45;69.33
10014;BME280;45684;48.358;10.746;2023-07-31T09:04:38;96171.53;;;22.51;68.09
10014;BME280;45684;48.358;10.746;2023-07-31T09:07:07;96162.88;;;22.66;66.59
10014;BME280;45684;48.358;10.746;2023-07-31T09:09:35;96169.97;;;22.71;64.59
10014;BME280;45684;48.358;10.746;2023-07-31T09:12:06;96167.59;;;22.73;66.06
10014;BME280;45684;48.358;10.746;2023-07-31T09:14:35;96164.44;;;22.60;64.35
10014;BME280;45684;48.358;10.746;2023-07-31T09:17:03;96160.50;;;22.61;64.22
10014;BME280;45684;48.358;10.746;2023-07-31T09:19:33;96170.75;;;22.39;66.12
10014;BME280;45684;48.358;10.746;2023-07-31T09:22:04;96162.09;;;22.41;68.50
10014;BME280;45684;48.358;10.746;2023-07-31T09:24:33;96156.97;;;22.50;70.73
10014;BME280;45684;48.358;10.746;2023-07-31T09:27:01;96155.38;;;22.78;69.31
10014;BME280;45684;48.358;10.746;2023-07-31T09:29:30;96154.16;;;23.11;63.18
10014;BME280;45684;48.358;10.746;2023-07-31T09:31:58;96150.59;;;23.21;61.29
10014;BME280;45684;48.358;10.746;2023-07-31T09:34:31;96139.97;;;23.16;61.07
10014;BME280;45684;48.358;10.746;2023-07-31T09:37:04;96138.81;;;23.03;63.01
10014;BME280;45684;48.358;10.746;2023-07-31T09:39:32;96138.44;;;23.04;59.37
10014;BME280;45684;48.358;10.746;2023-07-31T09:42:12;96132.13;;;23.00;60.22
10014;BME280;45684;48.358;10.746;2023-07-31T09:44:41;96118.25;;;23.25;60.78
10014;BME280;45684;48.358;10.746;2023-07-31T09:47:21;96119.38;;;23.38;61.73
10014;BME280;45684;48.358;10.746;2023-07-31T09:49:51;96118.88;;;23.61;60.52
10014;BME280;45684;48.358;10.746;2023-07-31T09:52:18;96101.91;;;23.70;56.63
10014;BME280;45684;48.358;10.746;2023-07-31T09:54:46;96101.84;;;23.81;57.80
10014;BME280;45684;48.358;10.746;2023-07-31T09:57:15;96098.16;;;23.98;57.49
10014;BME280;45684;48.358;10.746;2023-07-31T09:59:47;96101.81;;;23.84;55.54
10014;BME280;45684;48.358;10.746;2023-07-31T10:02:21;96097.19;;;23.60;55.72
10014;BME280;45684;48.358;10.746;2023-07-31T10:04:50;96086.88;;;23.78;56.10
10014;BME280;45684;48.358;10.746;2023-07-31T10:07:19;96071.31;;;24.02;57.77
10014;BME280;45684;48.358;10.746;2023-07-31T10:09:48;96064.00;;;24.26;53.02
10014;BME280;45684;48.358;10.746;2023-07-31T10:12:19;96063.38;;;24.53;49.93
10014;BME280;45684;48.358;10.746;2023-07-31T10:14:48;96064.38;;;24.73;48.73
10014;BME280;45684;48.358;10.746;2023-07-31T10:17:18;96063.25;;;25.05;47.14
10014;BME280;45684;48.358;10.746;2023-07-31T10:19:47;96075.69;;;25.24;47.63
10014;BME280;45684;48.358;10.746;2023-07-31T10:22:15;96068.50;;;25.30;45.81
10014;BME280;45684;48.358;10.746;2023-07-31T10:24:45;96076.97;;;25.15;47.13
10014;BME280;45684;48.358;10.746;2023-07-31T10:27:14;96081.44;;;25.36;48.22
10014;BME280;45684;48.358;10.746;2023-07-31T10:29:43;96070.66;;;25.76;46.85
10014;BME280;45684;48.358;10.746;2023-07-31T10:32:16;96068.97;;;25.82;44.96
10014;BME280;45684;48.358;10.746;2023-07-31T10:34:45;96055.25;;;25.72;44.01
10014;BME280;45684;48.358;10.746;2023-07-31T10:37:21;96049.81;;;25.37;44.86
10014;BME280;45684;48.358;10.746;2023-07-31T10:39:58;96048.34;;;24.95;45.73
10014;BME280;45684;48.358;10.746;2023-07-31T10:42:33;96042.44;;;24.89;47.65
10014;BME280;45684;48.358;10.746;2023-07-31T10:45:04;96044.06;;;24.87;48.31
10014;BME280;45684;48.358;10.746;2023-07-31T10:47:38;96045.00;;;25.11;46.59
10014;BME280;45684;48.358;10.746;2023-07-31T10:50:15;96034.44;;;25.60;46.41
10014;BME280;45684;48.358;10.746;2023-07-31T10:52:46;96032.69;;;26.00;45.33
10014;BME280;45684;48.358;10.746;2023-07-31T10:55:16;96033.66;;;26.13;44.28
10014;BME280;45684;48.358;10.746;2023-07-31T10:57:44;96028.31;;;26.26;44.16
10014;BME280;45684;48.358;10.746;2023-07-31T11:00:22;96034.25;;;26.48;44.07
10014;BME280;45684;48.358;10.746;2023-07-31T11:02:59;96016.22;;;26.60;43.71
10014;BME280;45684;48.358;10.746;2023-07-31T11:05:49;96010.69;;;26.60;43.47
10014;BME280;45684;48.358;10.746;2023-07-31T11:08:21;96015.81;;;26.81;41.91
10014;BME280;45684;48.358;10.746;2023-07-31T11:10:51;96002.84;;;26.94;43.71
10014;BME280;45684;48.358;10.746;2023-07-31T11:13:32;95998.41;;;27.37;43.06
10014;BME280;45684;48.358;10.746;2023-07-31T11:16:00;96004.88;;;27.50;42.55
10014;BME280;45684;48.358;10.746;2023-07-31T11:18:30;95991.25;;;27.56;42.51
10014;BME280;45684;48.358;10.746;2023-07-31T11:20:58;96005.81;;;27.43;41.98
10014;BME280;45684;48.358;10.746;2023-07-31T11:23:25;95999.75;;;27.49;42.07
10014;BME280;45684;48.358;10.746;2023-07-31T11:25:58;95988.09;;;27.74;41.73
10014;BME280;45684;48.358;10.746;2023-07-31T11:28:31;95980.03;;;27.95;41.16
10014;BME280;45684;48.358;10.746;2023-07-31T11:31:00;95974.59;;;28.21;41.17
10014;BME280;45684;48.358;10.746;2023-07-31T11:33:30;95979.00;;;28.51;39.91
10014;BME280;45684;48.358;10.746;2023-07-31T11:35:58;95975.41;;;28.21;39.91
10014;BME280;45684;48.358;10.746;2023-07-31T11:38:27;95977.84;;;28.03;40.05
10014;BME280;45684;48.358;10.746;2023-07-31T11:40:56;95981.25;;;27.94;39.34
10014;BME280;45684;48.358;10.746;2023-07-31T11:43:25;95977.69;;;27.94;37.84
10014;BME280;45684;48.358;10.746;2023-07-31T11:45:55;95974.72;;;28.01;39.24
10014;BME280;45684;48.358;10.746;2023-07-31T11:48:24;95970.50;;;28.26;38.74
10014;BME280;45684;48.358;10.746;2023-07-31T11:50:58;95967.44;;;28.53;38.72
10014;BME280;45684;48.358;10.746;2023-07-31T11:53:29;95971.53;;;28.48;39.13
10014;BME280;45684;48.358;10.746;2023-07-31T11:56:00;95965.34;;;28.57;39.52
10014;BME280;45684;48.358;10.746;2023-07-31T11:58:29;95968.91;;;28.57;39.43
10014;BME280;45684;48.358;10.746;2023-07-31T12:00:58;95952.16;;;28.86;38.14
10014;BME280;45684;48.358;10.746;2023-07-31T12:03:26;95962.03;;;29.58;38.41
10014;BME280;45684;48.358;10.746;2023-07-31T12:05:56;95966.00;;;29.70;35.99
10014;BME280;45684;48.358;10.746;2023-07-31T12:08:26;95955.25;;;30.07;35.79
10014;BME280;45684;48.358;10.746;2023-07-31T12:10:54;95963.78;;;29.90;36.32
10014;BME280;45684;48.358;10.746;2023-07-31T12:13:31;95956.84;;;29.18;37.13
10014;BME280;45684;48.358;10.746;2023-07-31T12:16:01;95961.59;;;28.63;37.37
10014;BME280;45684;48.358;10.746;2023-07-31T12:18:34;95953.63;;;28.33;38.56
10014;BME280;45684;48.358;10.746;2023-07-31T12:21:05;95950.91;;;27.84;39.91
10014;BME280;45684;48.358;10.746;2023-07-31T12:23:35;95950.44;;;27.69;40.40
10014;BME280;45684;48.358;10.746;2023-07-31T12:26:04;95958.28;;;27.58;40.09
10014;BME280;45684;48.358;10.746;2023-07-31T12:28:35;95950.59;;;27.29;40.46
10014;BME280;45684;48.358;10.746;2023-07-31T12:31:04;95944.59;;;26.75;41.21
10014;BME280;45684;48.358;10.746;2023-07-31T12:33:33;95941.13;;;26.51;42.06
10014;BME280;45684;48.358;10.746;2023-07-31T12:36:06;95934.09;;;26.42;41.78
10014;BME280;45684;48.358;10.746;2023-07-31T12:38:34;95937.63;;;26.47;42.11
10014;BME280;45684;48.358;10.746;2023-07-31T12:41:02;95936.53;;;26.80;41.80
10014;BME280;45684;48.358;10.746;2023-07-31T12:43:30;95936.50;;;27.73;41.51
10014;BME280;45684;48.358;10.746;2023-07-31T12:45:58;95924.31;;;28.73;39.46
10014;BME280;45684;48.358;10.746;2023-07-31T12:48:27;95919.72;;;29.09;38.95
10014;BME280;45684;48.358;10.746;2023-07-31T12:50:54;95911.16;;;29.16;38.98
10014;BME280;45684;48.358;10.746;2023-07-31T12:53:24;95911.94;;;29.16;39.01
10014;BME280;45684;48.358;10.746;2023-07-31T12:55:51;95922.06;;;29.36;37.25